Hartley, IA (51346)

6:26 PM CDT on May 24, 2015 (GMT -0500)
Little Sioux Orchard | | Change Station
CLOSE
Current Station
Personal Weather Station
Location: Milford, IA
Elevation: 1453 ft
Nearby Weather Stations

Elev 1453 ft 43.27 °N, 95.26 °W | Updated 13 seconds ago

Rain
Rain
62.4 °F
Feels Like 62.4 °F
N
0.0
Wind Variable Wind from ESE
Gusts 2.0 mph

Today
High -- | Low -- °F
--% Chance of Precip.
Yesterday
High -- | Low -- °F
Precip. -- in
5:50 AM 8:47 PM
Waxing Crescent, 43% visible
Pressure 29.79 in
Visibility 10.0 miles
Clouds Few 600 ft
Scattered Clouds 1900 ft
Overcast 2700 ft
Dew Point 61 °F
Humidity 96%
Rainfall 0.25 in
Snow Depth Not available.
UV 1 out of 12
Pollen 3.00 out of 12
Air Quality Not available.
Flu Activity Sporadic
SPECI KSPW 242300Z AUTO 14004KT 10SM FEW006 SCT019 OVC027 18/17 A2979 RMK AO2 T01780167 TSNO $

More Conditions Fewer Conditions

Pressure 29.79 in
Visibility 10.0 miles
Clouds Few 600 ft
Scattered Clouds 1900 ft
Overcast 2700 ft
Dew Point 61 °F
Humidity 96%
Rainfall 0.25 in
Snow Depth Not available.
UV 1 out of 12
Pollen 3.00 out of 12
Air Quality Not available.
Flu Activity Sporadic
SPECI KSPW 242300Z AUTO 14004KT 10SM FEW006 SCT019 OVC027 18/17 A2979 RMK AO2 T01780167 TSNO $

More Conditions Fewer Conditions

10-Day Weather Forecast

Almanac

Astronomy

May. 24, 2015 Rise Set
Actual Time
Civil Twilight
Nautical Twilight
Astronomical Twilight
Moon
Length of Visible Light
Length of Day
Tomorrow will be .
, % of the Moon is Illuminated

Today's Extremes

State Highs State Lows

Community

WunderPhotos

Upload Photos

1,823,892 photos uploaded!

WunderBlogs® & News

Nearby

Air Quality

  Air Quality AQ Index Pollutant
Not available.

Snow Depth

Station Depth Elevation

Earthquake Activity

City Distance Mag. Time & Date
Minimum magnitude displayed is 2.5.

Coastal Water Temperatures

Place Temperature

Stations

Nearby Weather Stations

Station Location Temp. Windchill Dew Point Humidity Wind Precip. Elev Updated Type